Terminal Aerodrome Forecast
Issued by NWS

Home | Current Version | Previous Version | Text Only | Print | Product List | Glossary Off
Versions: 1 2 3 4 5 6 7 8 9 10 11 12 13 14 15 16 17 18

000
FTUS43 KBIS 231100
TAFMOT
TAF
KMOT 231137Z 2312/2412 32015KT P6SM OVC008
      TEMPO 2312/2316 4SM -SN BR SCT008 OVC015
     FM231600 30014KT 5SM BR BKN008 OVC015
     FM240000 27006KT P6SM OVC020
     FM240900 21005KT P6SM SCT020 SCT070=

USA.gov is the U.S. government's official web portal to all federal, state and local government web resources and services.